sensor_id;sensor_type;location;lat;lon;timestamp;pressure;altitude;pressure_sealevel;temperature;humidity
17054;BME280;8643;48.824;11.422;2023-02-12T00:01:39;98810.84;;;1.87;100.00
17054;BME280;8643;48.824;11.422;2023-02-12T00:04:07;98815.88;;;1.83;100.00
17054;BME280;8643;48.824;11.422;2023-02-12T00:06:38;98806.97;;;1.83;100.00
17054;BME280;8643;48.824;11.422;2023-02-12T00:09:07;98799.69;;;1.83;100.00
17054;BME280;8643;48.824;11.422;2023-02-12T00:11:35;98799.44;;;1.85;100.00
17054;BME280;8643;48.824;11.422;2023-02-12T00:14:04;98805.66;;;1.86;100.00
17054;BME280;8643;48.824;11.422;2023-02-12T00:16:32;98802.75;;;1.87;100.00
17054;BME280;8643;48.824;11.422;2023-02-12T00:19:01;98804.03;;;1.85;100.00
17054;BME280;8643;48.824;11.422;2023-02-12T00:21:29;98808.00;;;1.82;100.00
17054;BME280;8643;48.824;11.422;2023-02-12T00:23:59;98809.16;;;1.74;100.00
17054;BME280;8643;48.824;11.422;2023-02-12T00:26:27;98799.09;;;1.81;100.00
17054;BME280;8643;48.824;11.422;2023-02-12T00:28:55;98793.69;;;1.81;100.00
17054;BME280;8643;48.824;11.422;2023-02-12T00:31:26;98801.09;;;1.86;100.00
17054;BME280;8643;48.824;11.422;2023-02-12T00:33:57;98794.88;;;1.86;100.00
17054;BME280;8643;48.824;11.422;2023-02-12T00:36:28;98787.84;;;1.85;100.00
17054;BME280;8643;48.824;11.422;2023-02-12T00:39:03;98773.81;;;1.76;100.00
17054;BME280;8643;48.824;11.422;2023-02-12T00:41:31;98784.03;;;1.74;100.00
17054;BME280;8643;48.824;11.422;2023-02-12T00:44:00;98787.47;;;1.81;100.00
17054;BME280;8643;48.824;11.422;2023-02-12T00:46:29;98781.81;;;1.82;100.00
17054;BME280;8643;48.824;11.422;2023-02-12T00:48:57;98784.16;;;1.79;100.00
17054;BME280;8643;48.824;11.422;2023-02-12T00:51:26;98798.28;;;1.81;100.00
17054;BME280;8643;48.824;11.422;2023-02-12T00:53:54;98797.66;;;1.79;100.00
17054;BME280;8643;48.824;11.422;2023-02-12T00:56:24;98801.88;;;1.75;100.00
17054;BME280;8643;48.824;11.422;2023-02-12T00:58:53;98806.22;;;1.76;100.00
17054;BME280;8643;48.824;11.422;2023-02-12T01:01:22;98795.50;;;1.69;100.00
17054;BME280;8643;48.824;11.422;2023-02-12T01:03:50;98800.44;;;1.72;100.00
17054;BME280;8643;48.824;11.422;2023-02-12T01:06:18;98812.69;;;1.75;100.00
17054;BME280;8643;48.824;11.422;2023-02-12T01:08:49;98807.06;;;1.76;100.00
17054;BME280;8643;48.824;11.422;2023-02-12T01:11:19;98804.94;;;1.78;100.00
17054;BME280;8643;48.824;11.422;2023-02-12T01:13:49;98796.63;;;1.80;100.00
17054;BME280;8643;48.824;11.422;2023-02-12T01:16:20;98800.34;;;1.79;100.00
17054;BME280;8643;48.824;11.422;2023-02-12T01:18:50;98790.84;;;1.76;100.00
17054;BME280;8643;48.824;11.422;2023-02-12T01:21:25;98798.56;;;1.73;100.00
17054;BME280;8643;48.824;11.422;2023-02-12T01:23:54;98797.31;;;1.75;100.00
17054;BME280;8643;48.824;11.422;2023-02-12T01:26:24;98795.88;;;1.73;100.00
17054;BME280;8643;48.824;11.422;2023-02-12T01:28:57;98790.00;;;1.76;100.00
17054;BME280;8643;48.824;11.422;2023-02-12T01:31:31;98803.50;;;1.76;100.00
17054;BME280;8643;48.824;11.422;2023-02-12T01:34:01;98802.59;;;1.82;100.00
17054;BME280;8643;48.824;11.422;2023-02-12T01:36:30;98804.03;;;1.85;100.00
17054;BME280;8643;48.824;11.422;2023-02-12T01:38:59;98806.97;;;1.83;100.00
17054;BME280;8643;48.824;11.422;2023-02-12T01:41:33;98802.59;;;1.82;100.00
17054;BME280;8643;48.824;11.422;2023-02-12T01:44:17;98804.03;;;1.85;100.00
17054;BME280;8643;48.824;11.422;2023-02-12T01:46:49;98803.19;;;1.84;100.00
17054;BME280;8643;48.824;11.422;2023-02-12T01:49:26;98807.78;;;1.83;100.00
17054;BME280;8643;48.824;11.422;2023-02-12T01:52:04;98808.81;;;1.82;100.00
17054;BME280;8643;48.824;11.422;2023-02-12T01:54:36;98808.59;;;1.84;100.00
17054;BME280;8643;48.824;11.422;2023-02-12T01:57:07;98810.03;;;1.87;100.00
17054;BME280;8643;48.824;11.422;2023-02-12T01:59:39;98810.84;;;1.87;100.00
17054;BME280;8643;48.824;11.422;2023-02-12T02:02:10;98806.50;;;1.86;100.00
17054;BME280;8643;48.824;11.422;2023-02-12T02:04:46;98800.50;;;1.84;100.00
17054;BME280;8643;48.824;11.422;2023-02-12T02:07:16;98796.16;;;1.83;100.00
17054;BME280;8643;48.824;11.422;2023-02-12T02:09:45;98797.78;;;1.84;100.00
17054;BME280;8643;48.824;11.422;2023-02-12T02:12:13;98786.41;;;1.82;100.00
17054;BME280;8643;48.824;11.422;2023-02-12T02:15:02;98789.31;;;1.80;100.00
17054;BME280;8643;48.824;11.422;2023-02-12T02:17:49;98790.16;;;1.81;100.00
17054;BME280;8643;48.824;11.422;2023-02-12T02:20:59;98785.81;;;1.80;100.00
17054;BME280;8643;48.824;11.422;2023-02-12T02:27:27;98799.53;;;1.78;100.00
17054;BME280;8643;48.824;11.422;2023-02-12T02:30:30;98797.88;;;1.77;100.00
17054;BME280;8643;48.824;11.422;2023-02-12T02:33:18;98797.31;;;1.75;100.00
17054;BME280;8643;48.824;11.422;2023-02-12T02:35:58;98803.50;;;1.76;100.00
17054;BME280;8643;48.824;11.422;2023-02-12T02:38:38;98798.72;;;1.78;100.00
17054;BME280;8643;48.824;11.422;2023-02-12T02:41:14;98805.19;;;1.77;100.00
17054;BME280;8643;48.824;11.422;2023-02-12T02:43:48;98808.47;;;1.79;100.00
17054;BME280;8643;48.824;11.422;2023-02-12T02:46:26;98799.09;;;1.81;100.00
17054;BME280;8643;48.824;11.422;2023-02-12T02:49:00;98802.03;;;1.80;100.00
17054;BME280;8643;48.824;11.422;2023-02-12T02:51:36;98805.53;;;1.80;100.00
17054;BME280;8643;48.824;11.422;2023-02-12T02:54:11;98812.81;;;1.80;100.00
17054;BME280;8643;48.824;11.422;2023-02-12T02:56:44;98810.13;;;1.80;100.00
17054;BME280;8643;48.824;11.422;2023-02-12T02:59:18;98812.00;;;1.79;100.00
17054;BME280;8643;48.824;11.422;2023-02-12T03:01:55;98803.97;;;1.73;100.00
17054;BME280;8643;48.824;11.422;2023-02-12T03:04:32;98801.66;;;1.76;100.00
17054;BME280;8643;48.824;11.422;2023-02-12T03:07:09;98803.75;;;1.74;100.00
17054;BME280;8643;48.824;11.422;2023-02-12T03:09:44;98805.63;;;1.74;100.00
17054;BME280;8643;48.824;11.422;2023-02-12T03:12:24;98806.66;;;1.73;100.00
17054;BME280;8643;48.824;11.422;2023-02-12T03:15:05;98815.84;;;1.72;100.00
17054;BME280;8643;48.824;11.422;2023-02-12T03:17:41;98806.66;;;1.73;100.00
17054;BME280;8643;48.824;11.422;2023-02-12T03:20:18;98804.69;;;1.68;100.00
17054;BME280;8643;48.824;11.422;2023-02-12T03:22:53;98812.34;;;1.71;100.00
17054;BME280;8643;48.824;11.422;2023-02-12T03:25:29;98811.25;;;1.72;100.00
17054;BME280;8643;48.824;11.422;2023-02-12T03:28:05;98812.78;;;1.68;100.00
17054;BME280;8643;48.824;11.422;2023-02-12T03:30:44;98813.38;;;1.70;100.00
17054;BME280;8643;48.824;11.422;2023-02-12T03:33:26;98812.56;;;1.70;100.00
17054;BME280;8643;48.824;11.422;2023-02-12T03:36:01;98812.88;;;1.61;100.00
17054;BME280;8643;48.824;11.422;2023-02-12T03:38:38;98806.19;;;1.64;100.00
17054;BME280;8643;48.824;11.422;2023-02-12T03:41:15;98811.00;;;1.62;100.00
17054;BME280;8643;48.824;11.422;2023-02-12T03:43:52;98814.13;;;1.59;100.00
17054;BME280;8643;48.824;11.422;2023-02-12T03:46:32;98820.22;;;1.54;100.00
17054;BME280;8643;48.824;11.422;2023-02-12T03:49:20;98815.63;;;1.55;100.00
17054;BME280;8643;48.824;11.422;2023-02-12T03:51:51;98827.72;;;1.52;100.00
17054;BME280;8643;48.824;11.422;2023-02-12T03:54:21;98821.75;;;1.50;100.00
17054;BME280;8643;48.824;11.422;2023-02-12T03:56:54;98829.00;;;1.50;100.00
17054;BME280;8643;48.824;11.422;2023-02-12T03:59:25;98839.41;;;1.46;100.00
17054;BME280;8643;48.824;11.422;2023-02-12T04:01:57;98831.56;;;1.44;100.00
17054;BME280;8643;48.824;11.422;2023-02-12T04:04:28;98834.03;;;1.46;100.00
17054;BME280;8643;48.824;11.422;2023-02-12T04:06:58;98840.88;;;1.49;100.00
17054;BME280;8643;48.824;11.422;2023-02-12T04:09:27;98833.22;;;1.45;100.00
17054;BME280;8643;48.824;11.422;2023-02-12T04:12:20;98831.91;;;1.48;100.00
17054;BME280;8643;48.824;11.422;2023-02-12T04:15:11;98841.91;;;1.48;100.00
17054;BME280;8643;48.824;11.422;2023-02-12T04:17:49;98848.97;;;1.49;100.00
17054;BME280;8643;48.824;11.422;2023-02-12T04:20:35;98852.25;;;1.51;100.00
17054;BME280;8643;48.824;11.422;2023-02-12T04:23:18;98843.47;;;1.55;100.00
17054;BME280;8643;48.824;11.422;2023-02-12T04:26:01;98850.97;;;1.53;100.00
17054;BME280;8643;48.824;11.422;2023-02-12T04:28:47;98848.25;;;1.53;100.00
17054;BME280;8643;48.824;11.422;2023-02-12T04:31:29;98854.13;;;1.50;100.00
17054;BME280;8643;48.824;11.422;2023-02-12T04:34:08;98852.91;;;1.46;100.00
17054;BME280;8643;48.824;11.422;2023-02-12T04:36:49;98851.88;;;1.47;100.00
17054;BME280;8643;48.824;11.422;2023-02-12T04:39:26;98843.56;;;1.49;100.00
17054;BME280;8643;48.824;11.422;2023-02-12T04:41:58;98838.38;;;1.47;100.00
17054;BME280;8643;48.824;11.422;2023-02-12T04:44:32;98850.44;;;1.44;100.00
17054;BME280;8643;48.824;11.422;2023-02-12T04:47:01;98846.56;;;1.40;100.00
17054;BME280;8643;48.824;11.422;2023-02-12T04:49:30;98849.03;;;1.42;100.00
17054;BME280;8643;48.824;11.422;2023-02-12T04:51:59;98855.47;;;1.41;100.00
17054;BME280;8643;48.824;11.422;2023-02-12T04:54:28;98851.97;;;1.40;100.00
17054;BME280;8643;48.824;11.422;2023-02-12T04:56:56;98858.84;;;1.36;100.00
17054;BME280;8643;48.824;11.422;2023-02-12T04:59:25;98868.25;;;1.34;100.00
17054;BME280;8643;48.824;11.422;2023-02-12T05:01:53;98860.38;;;1.32;100.00
17054;BME280;8643;48.824;11.422;2023-02-12T05:04:21;98856.81;;;1.32;100.00
17054;BME280;8643;48.824;11.422;2023-02-12T05:06:50;98865.28;;;1.35;100.00
17054;BME280;8643;48.824;11.422;2023-02-12T05:09:20;98872.94;;;1.38;100.00
17054;BME280;8643;48.824;11.422;2023-02-12T05:11:48;98867.09;;;1.41;100.00
17054;BME280;8643;48.824;11.422;2023-02-12T05:14:17;98870.63;;;1.42;100.00
17054;BME280;8643;48.824;11.422;2023-02-12T05:16:46;98879.69;;;1.48;100.00
17054;BME280;8643;48.824;11.422;2023-02-12T05:19:14;98878.44;;;1.50;100.00
17054;BME280;8643;48.824;11.422;2023-02-12T05:21:42;98878.44;;;1.50;100.00
17054;BME280;8643;48.824;11.422;2023-02-12T05:24:11;98872.81;;;1.52;100.00
17054;BME280;8643;48.824;11.422;2023-02-12T05:26:41;98869.72;;;1.48;100.00
17054;BME280;8643;48.824;11.422;2023-02-12T05:29:09;98872.03;;;1.44;100.00
17054;BME280;8643;48.824;11.422;2023-02-12T05:31:38;98884.59;;;1.39;100.00
17054;BME280;8643;48.824;11.422;2023-02-12T05:34:09;98881.56;;;1.28;100.00
17054;BME280;8643;48.824;11.422;2023-02-12T05:36:41;98882.50;;;1.16;100.00
17054;BME280;8643;48.824;11.422;2023-02-12T05:39:10;98877.38;;;1.14;100.00
17054;BME280;8643;48.824;11.422;2023-02-12T05:41:40;98884.47;;;1.08;100.00
17054;BME280;8643;48.824;11.422;2023-02-12T05:44:08;98889.63;;;1.10;100.00
17054;BME280;8643;48.824;11.422;2023-02-12T05:46:43;98895.41;;;1.14;100.00
17054;BME280;8643;48.824;11.422;2023-02-12T05:49:12;98884.03;;;1.12;100.00
17054;BME280;8643;48.824;11.422;2023-02-12T05:51:40;98891.06;;;1.13;100.00
17054;BME280;8643;48.824;11.422;2023-02-12T05:54:09;98888.25;;;1.01;100.00
17054;BME280;8643;48.824;11.422;2023-02-12T05:56:45;98898.09;;;0.95;100.00
17054;BME280;8643;48.824;11.422;2023-02-12T05:59:17;98892.84;;;1.00;100.00
17054;BME280;8643;48.824;11.422;2023-02-12T06:01:48;98894.81;;;1.12;100.00
17054;BME280;8643;48.824;11.422;2023-02-12T06:04:19;98892.03;;;1.18;100.00
17054;BME280;8643;48.824;11.422;2023-02-12T06:06:47;98893.03;;;1.24;100.00
17054;BME280;8643;48.824;11.422;2023-02-12T06:09:16;98897.75;;;1.28;100.00
17054;BME280;8643;48.824;11.422;2023-02-12T06:11:46;98900.84;;;1.32;100.00
17054;BME280;8643;48.824;11.422;2023-02-12T06:14:17;98908.72;;;1.34;100.00
17054;BME280;8643;48.824;11.422;2023-02-12T06:16:48;98904.97;;;1.35;100.00
17054;BME280;8643;48.824;11.422;2023-02-12T06:19:18;98914.72;;;1.36;100.00
17054;BME280;8643;48.824;11.422;2023-02-12T06:21:47;98910.34;;;1.35;100.00
17054;BME280;8643;48.824;11.422;2023-02-12T06:24:16;98910.81;;;1.32;100.00
17054;BME280;8643;48.824;11.422;2023-02-12T06:26:48;98911.25;;;1.28;100.00
17054;BME280;8643;48.824;11.422;2023-02-12T06:29:17;98920.03;;;1.24;100.00
17054;BME280;8643;48.824;11.422;2023-02-12T06:31:46;98920.47;;;1.21;100.00
17054;BME280;8643;48.824;11.422;2023-02-12T06:34:15;98925.09;;;1.14;100.00
17054;BME280;8643;48.824;11.422;2023-02-12T06:36:46;98922.09;;;1.03;100.00
17054;BME280;8643;48.824;11.422;2023-02-12T06:39:16;98925.16;;;1.07;100.00
17054;BME280;8643;48.824;11.422;2023-02-12T06:41:46;98925.75;;;1.09;100.00
17054;BME280;8643;48.824;11.422;2023-02-12T06:44:14;98918.78;;;1.01;100.00
17054;BME280;8643;48.824;11.422;2023-02-12T06:46:43;98926.53;;;0.91;100.00
17054;BME280;8643;48.824;11.422;2023-02-12T06:49:12;98925.00;;;1.02;100.00
17054;BME280;8643;48.824;11.422;2023-02-12T06:51:42;98918.78;;;1.01;100.00
17054;BME280;8643;48.824;11.422;2023-02-12T06:54:16;98930.22;;;0.97;100.00
17054;BME280;8643;48.824;11.422;2023-02-12T06:56:49;98926.47;;;0.98;100.00
17054;BME280;8643;48.824;11.422;2023-02-12T06:59:18;98920.84;;;0.99;100.00
17054;BME280;8643;48.824;11.422;2023-02-12T07:01:47;98924.56;;;1.05;100.00
17054;BME280;8643;48.824;11.422;2023-02-12T07:04:16;98928.00;;;1.12;100.00
17054;BME280;8643;48.824;11.422;2023-02-12T07:06:44;98922.09;;;1.22;100.00
17054;BME280;8643;48.824;11.422;2023-02-12T07:09:12;98924.91;;;1.34;100.00
17054;BME280;8643;48.824;11.422;2023-02-12T07:11:45;98928.50;;;1.46;100.00
17054;BME280;8643;48.824;11.422;2023-02-12T07:14:19;98925.22;;;1.62;100.00
17054;BME280;8643;48.824;11.422;2023-02-12T07:16:51;98922.22;;;1.71;100.00
17054;BME280;8643;48.824;11.422;2023-02-12T07:19:24;98919.53;;;1.71;100.00
17054;BME280;8643;48.824;11.422;2023-02-12T07:21:52;98923.81;;;1.78;100.00
17054;BME280;8643;48.824;11.422;2023-02-12T07:24:21;98925.47;;;1.79;100.00
17054;BME280;8643;48.824;11.422;2023-02-12T07:26:49;98922.91;;;1.85;100.00
17054;BME280;8643;48.824;11.422;2023-02-12T07:29:19;98921.53;;;1.94;100.00
17054;BME280;8643;48.824;11.422;2023-02-12T07:31:50;98922.31;;;2.13;100.00
17054;BME280;8643;48.824;11.422;2023-02-12T07:34:20;98928.75;;;2.30;100.00
17054;BME280;8643;48.824;11.422;2023-02-12T07:36:49;98913.78;;;2.46;100.00
17054;BME280;8643;48.824;11.422;2023-02-12T07:39:17;98917.41;;;2.52;100.00
17054;BME280;8643;48.824;11.422;2023-02-12T07:41:45;98922.91;;;2.75;100.00
17054;BME280;8643;48.824;11.422;2023-02-12T07:44:14;98929.13;;;2.76;100.00
17054;BME280;8643;48.824;11.422;2023-02-12T07:46:46;98928.56;;;2.86;100.00
17054;BME280;8643;48.824;11.422;2023-02-12T07:49:17;98924.94;;;2.92;100.00
17054;BME280;8643;48.824;11.422;2023-02-12T07:51:49;98928.00;;;3.07;100.00
17054;BME280;8643;48.824;11.422;2023-02-12T07:54:18;98931.84;;;3.00;100.00
17054;BME280;8643;48.824;11.422;2023-02-12T07:56:50;98927.06;;;3.14;100.00
17054;BME280;8643;48.824;11.422;2023-02-12T07:59:19;98928.38;;;3.23;100.00
17054;BME280;8643;48.824;11.422;2023-02-12T08:01:51;98928.72;;;3.26;100.00
17054;BME280;8643;48.824;11.422;2023-02-12T08:04:22;98927.75;;;3.44;100.00
17054;BME280;8643;48.824;11.422;2023-02-12T08:06:54;98923.97;;;3.69;100.00
17054;BME280;8643;48.824;11.422;2023-02-12T08:09:25;98936.22;;;3.60;100.00
17054;BME280;8643;48.824;11.422;2023-02-12T08:11:54;98939.28;;;3.52;100.00
17054;BME280;8643;48.824;11.422;2023-02-12T08:14:22;98935.53;;;3.53;100.00
17054;BME280;8643;48.824;11.422;2023-02-12T08:16:52;98937.16;;;3.65;100.00
17054;BME280;8643;48.824;11.422;2023-02-12T08:19:21;98936.09;;;3.55;100.00
17054;BME280;8643;48.824;11.422;2023-02-12T08:21:54;98940.00;;;3.59;100.00
17054;BME280;8643;48.824;11.422;2023-02-12T08:24:24;98931.41;;;3.62;100.00
17054;BME280;8643;48.824;11.422;2023-02-12T08:26:52;98931.16;;;3.63;100.00
17054;BME280;8643;48.824;11.422;2023-02-12T08:29:23;98931.78;;;3.54;100.00
17054;BME280;8643;48.824;11.422;2023-02-12T08:31:57;98929.06;;;3.54;100.00
17054;BME280;8643;48.824;11.422;2023-02-12T08:34:29;98933.50;;;3.60;100.00
17054;BME280;8643;48.824;11.422;2023-02-12T08:36:58;98940.59;;;3.61;100.00
17054;BME280;8643;48.824;11.422;2023-02-12T08:39:28;98935.28;;;3.54;100.00
17054;BME280;8643;48.824;11.422;2023-02-12T08:41:58;98941.41;;;3.61;100.00
17054;BME280;8643;48.824;11.422;2023-02-12T08:44:28;98937.97;;;3.66;100.00
17054;BME280;8643;48.824;11.422;2023-02-12T08:46:58;98932.09;;;3.69;100.00
17054;BME280;8643;48.824;11.422;2023-02-12T08:49:28;98933.69;;;3.94;100.00
17054;BME280;8643;48.824;11.422;2023-02-12T08:51:59;98933.34;;;4.31;100.00
17054;BME280;8643;48.824;11.422;2023-02-12T08:54:29;98937.91;;;4.42;100.00
17054;BME280;8643;48.824;11.422;2023-02-12T08:57:01;98937.19;;;4.35;100.00
17054;BME280;8643;48.824;11.422;2023-02-12T08:59:30;98936.06;;;4.31;100.00
17054;BME280;8643;48.824;11.422;2023-02-12T09:02:00;98936.88;;;4.31;100.00
17054;BME280;8643;48.824;11.422;2023-02-12T09:04:30;98937.19;;;4.35;100.00
17054;BME280;8643;48.824;11.422;2023-02-12T09:07:02;98939.44;;;4.38;100.00
17054;BME280;8643;48.824;11.422;2023-02-12T09:09:31;98953.09;;;4.43;100.00
17054;BME280;8643;48.824;11.422;2023-02-12T09:11:59;98950.47;;;4.19;100.00
17054;BME280;8643;48.824;11.422;2023-02-12T09:14:31;98947.44;;;4.16;100.00
17054;BME280;8643;48.824;11.422;2023-02-12T09:17:01;98959.19;;;4.21;100.00
17054;BME280;8643;48.824;11.422;2023-02-12T09:19:30;98956.94;;;4.30;100.00
17054;BME280;8643;48.824;11.422;2023-02-12T09:21:58;98952.66;;;4.34;100.00
17054;BME280;8643;48.824;11.422;2023-02-12T09:24:26;98957.91;;;4.24;100.00
17054;BME280;8643;48.824;11.422;2023-02-12T09:26:55;98962.09;;;4.32;100.00
17054;BME280;8643;48.824;11.422;2023-02-12T09:29:27;98955.03;;;4.31;100.00
17054;BME280;8643;48.824;11.422;2023-02-12T09:31:55;98959.66;;;4.30;100.00
17054;BME280;8643;48.824;11.422;2023-02-12T09:34:26;98962.09;;;4.32;100.00
17054;BME280;8643;48.824;11.422;2023-02-12T09:36:55;98965.00;;;4.13;100.00
17054;BME280;8643;48.824;11.422;2023-02-12T09:39:23;98973.97;;;4.02;100.00
17054;BME280;8643;48.824;11.422;2023-02-12T09:42:22;98974.34;;;3.94;100.00
17054;BME280;8643;48.824;11.422;2023-02-12T09:45:06;98970.47;;;3.90;100.00
17054;BME280;8643;48.824;11.422;2023-02-12T09:47:45;98970.31;;;4.08;100.00
17054;BME280;8643;48.824;11.422;2023-02-12T09:50:31;98982.44;;;4.06;100.00
17054;BME280;8643;48.824;11.422;2023-02-12T09:53:02;98976.22;;;4.05;100.00
17054;BME280;8643;48.824;11.422;2023-02-12T09:55:33;98982.09;;;4.02;100.00
17054;BME280;8643;48.824;11.422;2023-02-12T09:58:08;98984.72;;;3.97;100.00
17054;BME280;8643;48.824;11.422;2023-02-12T10:00:40;98980.94;;;3.98;100.00
17054;BME280;8643;48.824;11.422;2023-02-12T10:03:14;98981.28;;;4.01;100.00
17054;BME280;8643;48.824;11.422;2023-02-12T10:05:50;98982.91;;;4.14;100.00
17054;BME280;8643;48.824;11.422;2023-02-12T10:08:42;98976.22;;;4.05;100.00
17054;BME280;8643;48.824;11.422;2023-02-12T10:11:38;98979.03;;;4.10;100.00
17054;BME280;8643;48.824;11.422;2023-02-12T10:14:31;98976.34;;;4.39;100.00
17054;BME280;8643;48.824;11.422;2023-02-12T10:17:14;98978.94;;;4.74;100.00
17054;BME280;8643;48.824;11.422;2023-02-12T10:23:02;98978.22;;;5.47;100.00
17054;BME280;8643;48.824;11.422;2023-02-12T10:25:45;98966.72;;;5.79;100.00
17054;BME280;8643;48.824;11.422;2023-02-12T10:28:25;98968.75;;;5.88;100.00
17054;BME280;8643;48.824;11.422;2023-02-12T10:30:58;98970.31;;;5.62;100.00
17054;BME280;8643;48.824;11.422;2023-02-12T10:33:33;98973.41;;;5.71;100.00
17054;BME280;8643;48.824;11.422;2023-02-12T10:36:18;98965.19;;;5.66;100.00
17054;BME280;8643;48.824;11.422;2023-02-12T10:38:57;98964.28;;;5.99;100.00
17054;BME280;8643;48.824;11.422;2023-02-12T10:41:30;98971.66;;;6.21;100.00
17054;BME280;8643;48.824;11.422;2023-02-12T10:43:59;98972.88;;;6.35;100.00
17054;BME280;8643;48.824;11.422;2023-02-12T10:46:29;98963.94;;;5.74;100.00
17054;BME280;8643;48.824;11.422;2023-02-12T10:48:59;98973.75;;;5.41;100.00
17054;BME280;8643;48.824;11.422;2023-02-12T10:51:46;98977.16;;;5.48;100.00
17054;BME280;8643;48.824;11.422;2023-02-12T10:54:40;98966.13;;;5.77;100.00
17054;BME280;8643;48.824;11.422;2023-02-12T10:57:17;98963.94;;;5.96;100.00
17054;BME280;8643;48.824;11.422;2023-02-12T10:59:50;98959.63;;;5.78;100.00
17054;BME280;8643;48.824;11.422;2023-02-12T11:02:26;98967.00;;;5.60;100.00
17054;BME280;8643;48.824;11.422;2023-02-12T11:04:57;98963.59;;;6.09;100.00
17054;BME280;8643;48.824;11.422;2023-02-12T11:07:27;98956.69;;;6.46;100.00
17054;BME280;8643;48.824;11.422;2023-02-12T11:09:57;98963.63;;;6.86;100.00
17054;BME280;8643;48.824;11.422;2023-02-12T11:12:32;98956.91;;;7.26;100.00
17054;BME280;8643;48.824;11.422;2023-02-12T11:15:09;98963.78;;;7.76;100.00
17054;BME280;8643;48.824;11.422;2023-02-12T11:17:45;98964.34;;;8.41;100.00
17054;BME280;8643;48.824;11.422;2023-02-12T11:20:26;98965.38;;;8.25;100.00
17054;BME280;8643;48.824;11.422;2023-02-12T11:22:59;98963.53;;;7.78;100.00
17054;BME280;8643;48.824;11.422;2023-02-12T11:25:32;98956.66;;;7.75;100.00
17054;BME280;8643;48.824;11.422;2023-02-12T11:28:12;98960.56;;;7.42;100.00
17054;BME280;8643;48.824;11.422;2023-02-12T11:30:51;98966.31;;;7.13;100.00
17054;BME280;8643;48.824;11.422;2023-02-12T11:33:29;98960.06;;;7.12;100.00
17054;BME280;8643;48.824;11.422;2023-02-12T11:36:04;98962.84;;;6.90;100.00
17054;BME280;8643;48.824;11.422;2023-02-12T11:38:38;98965.41;;;6.48;100.00
17054;BME280;8643;48.824;11.422;2023-02-12T11:41:25;98964.47;;;6.37;100.00
17054;BME280;8643;48.824;11.422;2023-02-12T11:44:01;98962.22;;;5.67;100.00
17054;BME280;8643;48.824;11.422;2023-02-12T11:46:36;98954.81;;;5.85;100.00
17054;BME280;8643;48.824;11.422;2023-02-12T11:49:06;98948.03;;;6.27;100.00
17054;BME280;8643;48.824;11.422;2023-02-12T11:51:36;98953.03;;;6.89;100.00
17054;BME280;8643;48.824;11.422;2023-02-12T11:54:05;98954.69;;;7.23;100.00
17054;BME280;8643;48.824;11.422;2023-02-12T11:56:44;98948.03;;;7.08;100.00
17054;BME280;8643;48.824;11.422;2023-02-12T11:59:30;98952.97;;;7.49;100.00
17054;BME280;8643;48.824;11.422;2023-02-12T12:02:08;98949.97;;;7.50;100.00
17054;BME280;8643;48.824;11.422;2023-02-12T12:04:48;98943.91;;;7.81;100.00
17054;BME280;8643;48.824;11.422;2023-02-12T12:07:26;98944.94;;;7.75;100.00
17054;BME280;8643;48.824;11.422;2023-02-12T12:10:02;98947.28;;;7.56;100.00
17054;BME280;8643;48.824;11.422;2023-02-12T12:12:40;98939.44;;;7.64;100.00
17054;BME280;8643;48.824;11.422;2023-02-12T12:15:20;98946.78;;;7.64;100.00
17054;BME280;8643;48.824;11.422;2023-02-12T12:18:22;98948.06;;;7.13;100.00
17054;BME280;8643;48.824;11.422;2023-02-12T12:21:16;98954.03;;;6.78;100.00
17054;BME280;8643;48.824;11.422;2023-02-12T12:23:54;98948.41;;;6.90;100.00
17054;BME280;8643;48.824;11.422;2023-02-12T12:26:28;98948.94;;;6.59;100.00
17054;BME280;8643;48.824;11.422;2023-02-12T12:29:05;98949.00;;;6.37;100.00
17054;BME280;8643;48.824;11.422;2023-02-12T12:31:42;98947.69;;;6.45;100.00
17054;BME280;8643;48.824;11.422;2023-02-12T12:34:16;98940.31;;;6.68;100.00
17054;BME280;8643;48.824;11.422;2023-02-12T12:37:26;98937.75;;;7.15;100.00
17054;BME280;8643;48.824;11.422;2023-02-12T12:40:20;98936.78;;;7.75;100.00
17054;BME280;8643;48.824;11.422;2023-02-12T12:43:12;98935.66;;;8.39;100.00
17054;BME280;8643;48.824;11.422;2023-02-12T12:46:24;98929.81;;;9.24;100.00
17054;BME280;8643;48.824;11.422;2023-02-12T12:49:20;98930.44;;;10.02;100.00
17054;BME280;8643;48.824;11.422;2023-02-12T12:55:21;98928.97;;;9.44;100.00
17054;BME280;8643;48.824;11.422;2023-02-12T12:58:04;98927.59;;;10.33;100.00
17054;BME280;8643;48.824;11.422;2023-02-12T13:00:57;98924.97;;;11.89;94.15
17054;BME280;8643;48.824;11.422;2023-02-12T13:04:17;98927.44;;;10.63;96.57
17054;BME280;8643;48.824;11.422;2023-02-12T13:07:11;98933.00;;;9.67;100.00
17054;BME280;8643;48.824;11.422;2023-02-12T13:09:57;98929.50;;;8.85;100.00
17054;BME280;8643;48.824;11.422;2023-02-12T13:12:58;98923.19;;;8.63;100.00
17054;BME280;8643;48.824;11.422;2023-02-12T13:15:37;98925.69;;;9.01;100.00
17054;BME280;8643;48.824;11.422;2023-02-12T13:18:21;98922.63;;;8.46;100.00
17054;BME280;8643;48.824;11.422;2023-02-12T13:21:03;98925.78;;;8.17;100.00
17054;BME280;8643;48.824;11.422;2023-02-12T13:23:42;98922.63;;;8.51;100.00
17054;BME280;8643;48.824;11.422;2023-02-12T13:26:21;98924.06;;;8.01;100.00
17054;BME280;8643;48.824;11.422;2023-02-12T13:29:00;98921.97;;;7.60;100.00
17054;BME280;8643;48.824;11.422;2023-02-12T13:31:41;98920.00;;;8.03;100.00
17054;BME280;8643;48.824;11.422;2023-02-12T13:34:16;98919.81;;;8.25;100.00
17054;BME280;8643;48.824;11.422;2023-02-12T13:36:48;98922.38;;;7.89;100.00
17054;BME280;8643;48.824;11.422;2023-02-12T13:39:26;98919.16;;;7.45;100.00
17054;BME280;8643;48.824;11.422;2023-02-12T13:42:15;98921.41;;;7.15;100.00
17054;BME280;8643;48.824;11.422;2023-02-12T13:44:58;98919.97;;;7.45;100.00
17054;BME280;8643;48.824;11.422;2023-02-12T13:47:43;98922.06;;;7.33;100.00
17054;BME280;8643;48.824;11.422;2023-02-12T13:50:33;98920.72;;;7.36;100.00